Time;durP1;ratioP1;P1;durP2;ratioP2;P2;SDS_P1;SDS_P2;PMS_P1;PMS_P2;Temp;Humidity;BMP_temperature;BMP_pressure;BME280_temperature;BME280_humidity;BME280_pressure;Samples;Min_cycle;Max_cycle;Signal;HPM_P1;HPM_P2
2024/01/19 00:02:02;;;;;;;12.43;6.55;;;;;;;3.70;58.28;101357.31;4946445;29;20409;-68
2024/01/19 00:04:29;;;;;;;11.98;7.80;;;;;;;3.72;58.60;101366.78;4938264;29;20095;-68
2024/01/19 00:06:57;;;;;;;12.80;6.90;;;;;;;3.70;57.79;101354.66;4945355;29;20135;-68
2024/01/19 00:09:25;;;;;;;12.40;8.15;;;;;;;3.67;57.81;101361.13;4946704;29;20056;-68
2024/01/19 00:11:54;;;;;;;11.48;7.22;;;;;;;3.70;57.80;101370.59;4945869;29;20131;-68
2024/01/19 00:14:22;;;;;;;11.63;6.75;;;;;;;3.70;58.51;101370.59;4942414;29;20107;-68
2024/01/19 00:16:50;;;;;;;14.93;7.05;;;;;;;3.69;58.33;101374.25;4945616;29;20482;-69
2024/01/19 00:19:18;;;;;;;10.35;6.50;;;;;;;3.69;57.79;101374.25;4943480;29;20052;-68
2024/01/19 00:21:47;;;;;;;11.30;6.20;;;;;;;3.67;58.53;101369.09;4943868;29;20071;-68
2024/01/19 00:24:14;;;;;;;12.15;7.07;;;;;;;3.66;57.88;101364.78;4947077;29;20051;-68
2024/01/19 00:26:44;;;;;;;12.25;7.53;;;;;;;3.65;58.55;101372.91;4942709;29;20052;-68
2024/01/19 00:29:13;;;;;;;10.13;6.32;;;;;;;3.65;57.99;101371.09;4936853;29;20048;-68
2024/01/19 00:31:45;;;;;;;11.10;6.65;;;;;;;3.67;58.15;101373.59;4944855;29;20087;-69
2024/01/19 00:34:13;;;;;;;13.52;7.30;;;;;;;3.66;57.56;101371.94;4933214;29;20052;-68
2024/01/19 00:36:41;;;;;;;13.02;8.00;;;;;;;3.65;58.39;101379.06;4943626;29;20060;-69
2024/01/19 00:39:09;;;;;;;13.45;7.72;;;;;;;3.63;57.83;101381.06;4949175;29;20051;-68
2024/01/19 00:41:37;;;;;;;12.52;7.68;;;;;;;3.64;58.56;101381.88;4943907;29;20052;-68
2024/01/19 00:44:05;;;;;;;11.40;7.82;;;;;;;3.65;58.07;101379.06;4949017;29;20143;-67
2024/01/19 00:46:34;;;;;;;19.83;8.82;;;;;;;3.65;57.74;101388.88;4946165;29;20059;-68
2024/01/19 00:49:02;;;;;;;14.40;7.65;;;;;;;3.65;57.84;101380.88;4946729;29;20059;-68
2024/01/19 00:51:30;;;;;;;12.75;7.47;;;;;;;3.64;58.49;101384.53;4941902;29;20402;-68
2024/01/19 00:53:57;;;;;;;13.15;7.55;;;;;;;3.67;58.05;101384.22;4946329;29;20071;-68
2024/01/19 00:56:25;;;;;;;12.07;7.60;;;;;;;3.66;58.19;101390.53;4944170;29;20098;-68
2024/01/19 00:58:53;;;;;;;12.82;7.70;;;;;;;3.66;58.42;101388.69;4949570;29;20058;-70
2024/01/19 01:01:21;;;;;;;13.02;7.25;;;;;;;3.65;58.34;101384.38;4945160;29;20051;-69
2024/01/19 01:03:50;;;;;;;14.82;7.88;;;;;;;3.67;58.50;101386.88;4944205;29;20058;-69
2024/01/19 01:06:18;;;;;;;13.98;7.88;;;;;;;3.65;58.56;101387.03;4943543;29;20077;-68
2024/01/19 01:08:46;;;;;;;12.43;6.93;;;;;;;3.66;58.30;101386.03;4946254;29;20044;-68
2024/01/19 01:11:14;;;;;;;12.43;6.93;;;;;;;3.66;58.84;101387.88;4945619;29;20131;-68
2024/01/19 01:13:42;;;;;;;13.75;6.68;;;;;;;3.65;57.81;101381.72;4937403;29;20088;-68
2024/01/19 01:16:10;;;;;;;10.90;6.82;;;;;;;3.63;58.42;101378.41;4944596;29;20059;-69
2024/01/19 01:18:38;;;;;;;12.52;6.45;;;;;;;3.63;58.57;101377.56;4942981;29;20103;-68
2024/01/19 01:21:08;;;;;;;12.23;6.70;;;;;;;3.64;58.34;101371.25;4936510;29;20154;-69
2024/01/19 01:23:36;;;;;;;11.68;6.13;;;;;;;3.63;58.63;101370.44;4946100;29;20051;-69
2024/01/19 01:26:04;;;;;;;14.90;6.57;;;;;;;3.64;58.51;101382.72;4942290;29;20063;-69
2024/01/19 01:28:32;;;;;;;13.25;6.25;;;;;;;3.65;58.10;101392.34;4937697;29;20047;-69
2024/01/19 01:30:59;;;;;;;13.55;7.55;;;;;;;3.65;58.12;101405.66;4945460;29;20099;-69
2024/01/19 01:33:27;;;;;;;12.40;6.57;;;;;;;3.64;58.25;101395.19;4939589;29;20048;-69
2024/01/19 01:35:55;;;;;;;10.40;6.07;;;;;;;3.65;58.80;101394.19;4945047;29;20062;-69
2024/01/19 01:38:25;;;;;;;12.88;6.57;;;;;;;3.65;58.80;101395.00;4945597;29;20048;-69
2024/01/19 01:40:53;;;;;;;11.13;6.35;;;;;;;3.65;58.27;101400.31;4945502;29;20075;-70
2024/01/19 01:43:23;;;;;;;10.10;6.28;;;;;;;3.63;58.88;101404.16;4944073;29;20051;-69
2024/01/19 01:45:51;;;;;;;8.85;5.28;;;;;;;3.63;58.79;101412.13;4932906;29;20048;-69
2024/01/19 01:48:19;;;;;;;10.75;5.35;;;;;;;3.63;59.39;101420.94;4943549;29;20051;-69
2024/01/19 01:50:48;;;;;;;8.88;5.32;;;;;;;3.64;58.65;101419.94;4940961;28;20111;-69
2024/01/19 01:53:18;;;;;;;9.10;5.57;;;;;;;3.63;58.96;101412.13;4946138;29;20557;-69
2024/01/19 01:55:48;;;;;;;6.97;4.88;;;;;;;3.64;58.86;101411.94;4945098;29;20058;-69
2024/01/19 01:58:17;;;;;;;9.90;4.78;;;;;;;3.63;59.26;101420.94;4941660;29;20076;-69
2024/01/19 02:00:46;;;;;;;9.40;4.63;;;;;;;3.63;58.93;101418.25;4942756;29;20052;-69
2024/01/19 02:03:14;;;;;;;14.25;5.50;;;;;;;3.64;58.94;101427.91;4943206;29;20142;-68
2024/01/19 02:05:42;;;;;;;8.35;4.10;;;;;;;3.63;59.21;101426.25;4936147;29;20508;-69
2024/01/19 02:08:10;;;;;;;9.55;4.95;;;;;;;3.64;58.97;101432.38;4944305;29;20051;-69
2024/01/19 02:10:39;;;;;;;9.38;4.65;;;;;;;3.62;59.95;101434.38;4941117;29;20094;-69
2024/01/19 02:13:08;;;;;;;6.95;4.03;;;;;;;3.62;59.95;101437.88;4942798;29;20047;-69
2024/01/19 02:15:37;;;;;;;10.20;4.05;;;;;;;3.62;59.25;101445.84;4947683;29;20051;-69
2024/01/19 02:18:05;;;;;;;6.43;3.72;;;;;;;3.60;59.14;101443.34;4948005;29;20079;-68
2024/01/19 02:20:33;;;;;;;9.02;3.42;;;;;;;3.59;59.35;101448.81;4944568;29;20047;-68
2024/01/19 02:23:03;;;;;;;6.95;4.22;;;;;;;3.61;59.74;101460.13;4945888;29;20057;-68
2024/01/19 02:25:32;;;;;;;10.25;4.47;;;;;;;3.60;59.80;101455.78;4941619;29;20056;-68
2024/01/19 02:28:01;;;;;;;5.78;3.45;;;;;;;3.59;59.49;101456.78;4944703;29;20059;-70
2024/01/19 02:30:30;;;;;;;7.88;3.95;;;;;;;3.58;59.16;101463.09;4948336;29;20055;-69
2024/01/19 02:32:58;;;;;;;7.82;3.95;;;;;;;3.55;59.30;101469.56;4945384;29;21348;-69
2024/01/19 02:35:26;;;;;;;13.43;4.10;;;;;;;3.55;59.34;101468.72;4948994;29;20066;-68
2024/01/19 02:37:53;;;;;;;5.32;3.45;;;;;;;3.55;59.87;101474.88;4938792;29;20127;-68
2024/01/19 02:40:21;;;;;;;8.90;4.30;;;;;;;3.55;59.45;101466.91;4947008;29;20102;-68
2024/01/19 02:42:51;;;;;;;8.27;3.97;;;;;;;3.56;60.12;101470.41;4947545;29;20379;-68
2024/01/19 02:45:18;;;;;;;8.75;3.78;;;;;;;3.55;59.77;101484.69;4944545;29;20051;-70
2024/01/19 02:47:46;;;;;;;9.80;3.17;;;;;;;3.56;60.23;101486.34;4949258;29;20056;-69
2024/01/19 02:50:14;;;;;;;5.47;3.55;;;;;;;3.56;59.50;101479.19;4949188;29;20127;-68
2024/01/19 02:52:43;;;;;;;6.38;3.05;;;;;;;3.55;59.72;101490.00;4944775;29;20139;-68
2024/01/19 02:55:12;;;;;;;9.73;4.28;;;;;;;3.56;60.24;101487.19;4947257;29;20055;-69
2024/01/19 02:57:40;;;;;;;5.72;3.30;;;;;;;3.57;59.59;101488.00;4947615;29;20051;-69
2024/01/19 03:00:10;;;;;;;5.97;2.97;;;;;;;3.56;60.38;101491.66;4944849;29;20075;-69
2024/01/19 03:02:38;;;;;;;6.57;2.80;;;;;;;3.55;60.44;101495.31;4944754;29;20048;-69
2024/01/19 03:05:06;;;;;;;5.25;3.03;;;;;;;3.54;60.33;101502.44;4952460;29;20110;-69
2024/01/19 03:07:34;;;;;;;8.63;3.40;;;;;;;3.55;60.21;101505.94;4939001;29;20051;-69
2024/01/19 03:10:02;;;;;;;6.30;3.75;;;;;;;3.54;60.32;101491.00;4938454;29;20483;-69
2024/01/19 03:12:30;;;;;;;5.35;3.10;;;;;;;3.53;60.24;101499.94;4941850;29;20072;-69
2024/01/19 03:14:57;;;;;;;5.28;3.08;;;;;;;3.50;60.03;101500.28;4948163;29;20079;-69
2024/01/19 03:17:27;;;;;;;6.60;2.80;;;;;;;3.52;59.98;101508.91;4944685;29;20059;-69
2024/01/19 03:19:55;;;;;;;8.18;3.20;;;;;;;3.54;60.61;101512.25;4948318;29;20068;-68
2024/01/19 03:22:22;;;;;;;6.10;3.55;;;;;;;3.53;60.64;101510.59;4941789;29;20560;-69
2024/01/19 03:24:50;;;;;;;4.88;2.80;;;;;;;3.51;60.66;101510.75;4947976;29;20057;-69
2024/01/19 03:27:18;;;;;;;7.75;4.03;;;;;;;3.52;59.84;101514.22;4941281;29;20056;-69
2024/01/19 03:29:47;;;;;;;6.07;2.78;;;;;;;3.51;60.70;101513.41;4944773;29;20044;-69
2024/01/19 03:32:15;;;;;;;5.82;2.83;;;;;;;3.51;60.77;101518.72;4947478;29;20059;-69
2024/01/19 03:34:44;;;;;;;5.20;2.63;;;;;;;3.50;60.18;101517.03;4949154;29;20055;-69
2024/01/19 03:37:12;;;;;;;6.30;3.35;;;;;;;3.50;60.41;101516.22;4944520;29;20139;-69
2024/01/19 03:39:40;;;;;;;8.90;2.95;;;;;;;3.49;60.81;101514.53;4942631;29;20051;-69
2024/01/19 03:42:07;;;;;;;8.40;2.83;;;;;;;3.49;60.09;101518.03;4947712;29;20163;-69
2024/01/19 03:44:36;;;;;;;7.75;3.00;;;;;;;3.50;60.59;101514.38;4940886;29;20075;-69
2024/01/19 03:47:04;;;;;;;7.57;3.03;;;;;;;3.50;60.76;101516.22;4945939;29;20453;-69
2024/01/19 03:49:31;;;;;;;7.47;3.95;;;;;;;3.49;60.04;101517.22;4947540;29;20063;-69
2024/01/19 03:52:04;;;;;;;5.65;3.20;;;;;;;3.48;60.43;101521.69;4947831;29;20048;-69
2024/01/19 03:54:33;;;;;;;5.82;3.17;;;;;;;3.43;60.12;101515.22;4935670;29;20055;-69
2024/01/19 03:57:04;;;;;;;6.47;3.20;;;;;;;3.48;60.47;101531.47;4945152;29;20103;-69
2024/01/19 03:59:32;;;;;;;6.32;3.40;;;;;;;3.46;60.85;101531.69;4948280;29;20056;-69
2024/01/19 04:02:01;;;;;;;4.90;2.95;;;;;;;3.45;60.71;101531.84;4940699;29;20087;-69
2024/01/19 04:04:29;;;;;;;7.95;3.33;;;;;;;3.45;60.20;101529.19;4950003;29;20055;-69
2024/01/19 04:06:57;;;;;;;7.03;3.20;;;;;;;3.47;60.04;101535.13;4944093;29;20052;-70
2024/01/19 04:09:26;;;;;;;10.48;3.45;;;;;;;3.47;60.41;101532.47;4945071;29;20051;-69
2024/01/19 04:11:54;;;;;;;8.05;3.35;;;;;;;3.44;60.23;101538.97;4947327;29;20103;-69
2024/01/19 04:14:22;;;;;;;5.93;3.42;;;;;;;3.43;60.50;101545.28;4939771;29;20078;-69
2024/01/19 04:16:52;;;;;;;7.40;3.42;;;;;;;3.44;60.71;101543.44;4946313;29;20131;-69
2024/01/19 04:19:20;;;;;;;6.97;3.67;;;;;;;3.43;60.67;101539.13;4946377;29;20048;-69
2024/01/19 04:21:48;;;;;;;8.77;3.15;;;;;;;3.41;60.27;101547.25;4944524;29;20111;-69
2024/01/19 04:24:15;;;;;;;6.05;3.58;;;;;;;3.41;60.22;101543.78;4946764;29;20059;-69
2024/01/19 04:26:45;;;;;;;5.78;4.20;;;;;;;3.38;59.87;101552.88;4947026;29;20110;-69
2024/01/19 04:29:13;;;;;;;11.07;4.70;;;;;;;3.41;60.69;101559.72;4947336;29;20068;-69
2024/01/19 04:31:41;;;;;;;10.75;4.28;;;;;;;3.40;59.77;101563.34;4939857;29;20055;-69
2024/01/19 04:34:08;;;;;;;9.73;4.80;;;;;;;3.39;59.93;101569.66;4946201;29;20059;-69
2024/01/19 04:36:36;;;;;;;10.00;5.10;;;;;;;3.39;60.62;101575.81;4945923;29;20054;-69
2024/01/19 04:39:04;;;;;;;7.47;4.93;;;;;;;3.38;60.42;101576.78;4945683;29;20071;-69
2024/01/19 04:41:32;;;;;;;10.30;5.32;;;;;;;3.38;60.40;101579.47;4946763;29;20043;-69
2024/01/19 04:44:02;;;;;;;9.80;5.30;;;;;;;3.36;59.91;101580.59;4946492;29;20075;-69
2024/01/19 04:46:30;;;;;;;11.07;6.57;;;;;;;3.37;60.42;101587.59;4941501;29;20056;-69
2024/01/19 04:48:58;;;;;;;10.52;5.40;;;;;;;3.34;60.47;101594.03;4946736;29;20048;-69
2024/01/19 04:51:26;;;;;;;9.73;5.68;;;;;;;3.33;60.16;101603.00;4941018;29;20088;-69
2024/01/19 04:53:54;;;;;;;13.00;6.97;;;;;;;3.32;59.86;101601.34;4945050;29;20051;-69
2024/01/19 04:56:22;;;;;;;10.32;6.47;;;;;;;3.34;59.79;101593.22;4935272;29;20118;-70
2024/01/19 04:58:50;;;;;;;11.88;6.57;;;;;;;3.30;60.47;101597.16;4930371;29;20052;-69
2024/01/19 05:01:19;;;;;;;12.57;6.88;;;;;;;3.33;59.62;101610.97;4945608;29;20082;-69
2024/01/19 05:03:46;;;;;;;9.98;6.45;;;;;;;3.31;60.21;101604.97;4946134;29;20052;-69
2024/01/19 05:06:14;;;;;;;11.80;6.88;;;;;;;3.30;59.57;101608.63;4945636;29;20059;-69
2024/01/19 05:08:42;;;;;;;13.27;6.97;;;;;;;3.31;60.08;101607.63;4942675;29;20052;-69
2024/01/19 05:11:13;;;;;;;14.80;7.53;;;;;;;3.31;59.94;101609.47;4945241;29;20048;-69
2024/01/19 05:13:43;;;;;;;11.73;6.95;;;;;;;3.29;60.13;101617.59;4943943;29;20048;-69
2024/01/19 05:16:11;;;;;;;11.68;7.43;;;;;;;3.28;60.00;101615.91;4941850;29;20151;-69
2024/01/19 05:18:40;;;;;;;12.15;7.50;;;;;;;3.29;60.13;101608.78;4945538;29;20082;-69
2024/01/19 05:21:09;;;;;;;16.60;7.88;;;;;;;3.29;60.10;101606.97;4946136;29;20060;-69
2024/01/19 05:23:36;;;;;;;10.52;6.47;;;;;;;3.28;59.19;101621.22;4946141;29;20048;-69
2024/01/19 05:26:05;;;;;;;18.40;7.53;;;;;;;3.27;59.74;101624.88;4938716;29;20115;-69
2024/01/19 05:28:33;;;;;;;14.77;7.40;;;;;;;3.26;59.94;101631.19;4945610;29;20090;-68
2024/01/19 05:31:01;;;;;;;13.82;8.30;;;;;;;3.24;59.31;101634.00;4944980;29;20055;-69
2024/01/19 05:33:30;;;;;;;12.38;7.68;;;;;;;3.22;59.73;101633.31;4945577;29;20102;-69
2024/01/19 05:36:01;;;;;;;12.55;7.53;;;;;;;3.24;60.21;101635.81;4945516;29;20109;-69
2024/01/19 05:38:29;;;;;;;11.85;8.07;;;;;;;3.24;59.98;101644.63;4942818;29;20057;-69
2024/01/19 05:41:01;;;;;;;12.77;7.82;;;;;;;3.24;59.55;101646.44;4944976;29;20057;-69
2024/01/19 05:43:29;;;;;;;11.63;7.72;;;;;;;3.23;59.94;101647.41;4943907;29;20110;-69
2024/01/19 05:45:57;;;;;;;14.20;7.63;;;;;;;3.22;59.60;101657.22;4941317;29;20132;-68
2024/01/19 05:48:25;;;;;;;16.85;8.07;;;;;;;3.21;59.57;101665.34;4945216;29;20055;-69
2024/01/19 05:50:53;;;;;;;12.23;7.60;;;;;;;3.21;59.25;101668.00;4942653;29;20102;-68
2024/01/19 05:53:23;;;;;;;13.63;7.82;;;;;;;3.21;59.61;101674.13;4945578;29;20128;-69
2024/01/19 05:55:51;;;;;;;14.13;8.75;;;;;;;3.20;59.79;101677.78;4945666;29;20047;-68
2024/01/19 05:58:18;;;;;;;13.73;7.25;;;;;;;3.18;59.77;101684.22;4945615;29;20056;-69
2024/01/19 06:00:46;;;;;;;16.25;7.95;;;;;;;3.18;59.62;101692.19;4943557;29;20043;-68
2024/01/19 06:03:14;;;;;;;11.15;7.75;;;;;;;3.24;59.78;101702.22;4951105;29;20087;-69
2024/01/19 06:05:42;;;;;;;12.65;7.55;;;;;;;3.37;58.43;101701.81;4941071;29;20048;-70
2024/01/19 06:08:10;;;;;;;11.82;7.57;;;;;;;3.51;57.99;101703.91;4926986;29;20138;-68
2024/01/19 06:10:39;;;;;;;17.25;8.88;;;;;;;3.60;58.14;101705.63;4942812;29;20056;-68
2024/01/19 06:13:08;;;;;;;12.35;7.90;;;;;;;3.70;57.53;101721.47;4942531;29;20108;-68
2024/01/19 06:15:36;;;;;;;14.13;7.72;;;;;;;3.75;57.97;101720.03;4942024;29;20127;-69
2024/01/19 06:18:04;;;;;;;11.45;7.15;;;;;;;3.73;58.00;101710.53;4944763;29;20047;-69
2024/01/19 06:20:33;;;;;;;13.52;8.02;;;;;;;3.81;58.05;101711.41;4944968;29;20080;-69
2024/01/19 06:23:00;;;;;;;12.77;7.40;;;;;;;3.93;56.90;101718.16;4942802;29;20099;-69
2024/01/19 06:25:28;;;;;;;11.57;7.00;;;;;;;4.07;56.58;101721.22;4945216;29;20048;-69
2024/01/19 06:27:57;;;;;;;19.08;8.00;;;;;;;4.19;56.52;101727.94;4940674;29;20054;-71
2024/01/19 06:30:25;;;;;;;12.10;7.03;;;;;;;4.33;55.68;101731.81;4943875;29;20741;-72
2024/01/19 06:32:53;;;;;;;11.52;7.20;;;;;;;4.45;55.52;101739.38;4939672;29;20095;-72
2024/01/19 06:35:21;;;;;;;17.70;7.57;;;;;;;4.56;55.08;101740.91;4942751;29;20066;-71
2024/01/19 06:37:49;;;;;;;10.13;6.55;;;;;;;4.51;55.51;101746.72;4945309;29;20048;-74
2024/01/19 06:40:18;;;;;;;12.35;6.63;;;;;;;4.41;55.56;101759.31;4944871;29;20134;-70
2024/01/19 06:42:45;;;;;;;15.13;7.20;;;;;;;4.25;56.11;101749.41;4601627;29;10000060;-70
2024/01/19 06:45:17;;;;;;;11.38;6.55;;;;;;;4.09;56.67;101753.81;4941356;29;20072;-69
2024/01/19 06:47:45;;;;;;;11.88;6.80;;;;;;;4.00;57.01;101760.91;4942603;29;20055;-75
2024/01/19 06:50:13;;;;;;;10.68;6.93;;;;;;;3.88;57.11;101770.97;4938932;29;20066;-68
2024/01/19 06:52:41;;;;;;;12.95;7.05;;;;;;;3.81;57.76;101783.22;4940718;29;20063;-71
2024/01/19 06:55:09;;;;;;;11.65;7.38;;;;;;;3.77;58.28;101779.19;4937520;29;20055;-70
2024/01/19 06:57:37;;;;;;;10.40;6.68;;;;;;;3.72;57.91;101780.63;4935860;29;20063;-70
2024/01/19 07:00:06;;;;;;;9.02;6.25;;;;;;;3.68;57.65;101784.59;4941501;29;20055;-71
2024/01/19 07:02:35;;;;;;;10.90;6.47;;;;;;;3.65;57.95;101780.41;4944438;29;20043;-72
2024/01/19 07:05:04;;;;;;;8.23;5.50;;;;;;;3.60;58.02;101775.56;4944477;29;20055;-71
2024/01/19 07:07:32;;;;;;;11.65;6.40;;;;;;;3.57;58.39;101783.00;4943940;29;20060;-71
2024/01/19 07:09:59;;;;;;;9.55;6.28;;;;;;;3.53;58.42;101795.78;4944682;29;20075;-72
2024/01/19 07:12:27;;;;;;;9.50;5.90;;;;;;;3.51;58.12;101802.22;4938862;29;20051;-72
2024/01/19 07:14:55;;;;;;;15.40;6.40;;;;;;;3.50;58.84;101805.88;4940269;29;20058;-74
2024/01/19 07:17:23;;;;;;;10.90;6.13;;;;;;;3.42;58.92;101804.00;4944027;29;20071;-68
2024/01/19 07:19:52;;;;;;;18.10;6.05;;;;;;;3.45;59.10;101808.19;4945524;29;20162;-72
2024/01/19 07:22:20;;;;;;;9.40;6.28;;;;;;;3.56;58.63;101819.38;4948764;29;20075;-71
2024/01/19 07:24:48;;;;;;;9.57;6.15;;;;;;;3.74;57.80;101821.19;4943027;29;20051;-71
2024/01/19 07:27:15;;;;;;;9.38;5.68;;;;;;;3.90;57.45;101824.00;4939183;29;20059;-74
2024/01/19 07:29:42;;;;;;;13.63;5.93;;;;;;;4.07;57.33;101820.47;4948163;29;20445;-73
2024/01/19 07:32:11;;;;;;;9.57;5.88;;;;;;;4.22;56.53;101831.38;4935040;29;20051;-74
2024/01/19 07:34:39;;;;;;;10.75;5.63;;;;;;;4.39;56.42;101837.63;4948058;29;20055;-74
2024/01/19 07:37:09;;;;;;;9.73;5.45;;;;;;;4.46;55.85;101822.72;4948672;29;20047;-72
2024/01/19 07:39:36;;;;;;;9.35;5.47;;;;;;;4.65;55.08;101842.94;4944121;29;20044;-74
2024/01/19 07:42:04;;;;;;;11.20;5.85;;;;;;;4.80;54.91;101834.19;4942135;29;20051;-68
2024/01/19 07:44:32;;;;;;;10.23;5.30;;;;;;;4.89;54.42;101843.06;4943687;29;20055;-74
2024/01/19 07:47:01;;;;;;;9.45;5.82;;;;;;;4.97;54.45;101837.75;4944768;29;20520;-74
2024/01/19 07:49:29;;;;;;;8.63;5.05;;;;;;;5.01;54.31;101841.78;4941317;29;20048;-74
2024/01/19 07:51:56;;;;;;;8.50;5.18;;;;;;;5.07;54.07;101846.44;4943384;29;20528;-73
2024/01/19 07:54:26;;;;;;;12.80;5.60;;;;;;;5.06;54.06;101855.44;4945523;29;20048;-70
2024/01/19 07:56:54;;;;;;;12.80;5.57;;;;;;;4.97;54.09;101845.75;4939720;29;20052;-74
2024/01/19 07:59:21;;;;;;;11.55;5.68;;;;;;;4.82;54.32;101858.00;4948013;29;20043;-74
2024/01/19 08:01:49;;;;;;;9.60;5.63;;;;;;;4.64;55.37;101873.22;4945169;29;20126;-73
2024/01/19 08:04:17;;;;;;;12.02;5.95;;;;;;;4.42;55.54;101875.41;4946536;29;20052;-74
2024/01/19 08:06:45;;;;;;;7.80;5.57;;;;;;;4.29;55.55;101877.66;4941991;29;20044;-74
2024/01/19 08:09:13;;;;;;;9.60;5.18;;;;;;;4.18;56.40;101877.91;4947473;29;20087;-72
2024/01/19 08:11:42;;;;;;;10.65;6.38;;;;;;;4.08;56.43;101885.13;4952847;28;20047;-74
2024/01/19 08:14:10;;;;;;;10.35;5.43;;;;;;;4.00;56.85;101885.06;4941234;29;20048;-74
2024/01/19 08:16:38;;;;;;;11.98;5.35;;;;;;;3.95;57.25;101888.19;4946035;29;20043;-73
2024/01/19 08:19:05;;;;;;;10.73;6.15;;;;;;;3.89;57.25;101888.81;4945489;29;20059;-75
2024/01/19 08:21:33;;;;;;;11.82;6.22;;;;;;;3.83;57.22;101887.59;4953311;29;20150;-75
2024/01/19 08:24:01;;;;;;;12.07;5.32;;;;;;;3.78;57.23;101892.53;4938215;29;20088;-74
2024/01/19 08:26:30;;;;;;;11.55;6.93;;;;;;;3.72;57.90;101897.63;4933780;29;20058;-75
2024/01/19 08:29:00;;;;;;;10.85;5.85;;;;;;;3.68;57.54;101910.38;4946709;29;20115;-75
2024/01/19 08:31:30;;;;;;;13.88;5.70;;;;;;;3.75;57.20;101906.13;4944041;29;20095;-74
2024/01/19 08:33:58;;;;;;;10.90;6.00;;;;;;;3.90;56.76;101911.75;4952978;29;20051;-69
2024/01/19 08:36:25;;;;;;;12.43;5.88;;;;;;;4.06;56.86;101916.38;4946109;29;20075;-68
2024/01/19 08:38:54;;;;;;;10.70;5.85;;;;;;;4.21;56.23;101921.00;4944453;29;20074;-68
2024/01/19 08:41:23;;;;;;;10.20;5.93;;;;;;;4.34;55.46;101912.63;4943287;29;20044;-70
2024/01/19 08:43:51;;;;;;;10.27;5.78;;;;;;;4.48;55.49;101912.06;4946009;29;20066;-71
2024/01/19 08:46:20;;;;;;;9.77;5.78;;;;;;;4.65;54.52;101909.50;4945323;29;20056;-70
2024/01/19 08:48:48;;;;;;;10.25;5.55;;;;;;;4.65;55.00;101912.16;4937978;29;20506;-71
2024/01/19 08:51:20;;;;;;;9.68;5.63;;;;;;;4.62;54.79;101917.81;4941106;28;20084;-70
2024/01/19 08:53:48;;;;;;;10.43;6.28;;;;;;;4.46;55.21;101919.38;4940184;29;20043;-71
2024/01/19 08:56:20;;;;;;;10.63;5.85;;;;;;;4.31;55.84;101928.91;4942120;29;20268;-70
2024/01/19 08:58:48;;;;;;;14.30;6.22;;;;;;;4.13;56.08;101934.22;4944389;29;20071;-70
2024/01/19 09:01:20;;;;;;;9.93;5.97;;;;;;;3.95;56.49;101941.38;4943263;29;20059;-69
2024/01/19 09:03:48;;;;;;;12.40;6.80;;;;;;;3.87;57.05;101941.31;4943313;29;20080;-70
2024/01/19 09:06:16;;;;;;;11.50;6.45;;;;;;;3.73;56.57;101940.00;4943643;29;20052;-70
2024/01/19 09:08:45;;;;;;;11.20;6.55;;;;;;;3.77;57.73;101952.00;4946213;29;20098;-70
2024/01/19 09:11:13;;;;;;;11.38;6.25;;;;;;;3.73;57.03;101955.94;4941109;29;20052;-70
2024/01/19 09:13:41;;;;;;;11.55;6.47;;;;;;;3.71;57.83;101959.75;4944699;29;20051;-70
2024/01/19 09:16:09;;;;;;;11.35;6.22;;;;;;;3.67;57.01;101966.34;4942196;29;20060;-69
2024/01/19 09:18:39;;;;;;;9.52;6.38;;;;;;;3.55;57.84;101955.91;4944656;29;20067;-70
2024/01/19 09:21:08;;;;;;;11.55;6.57;;;;;;;3.52;57.84;101955.38;4944515;29;20159;-69
2024/01/19 09:23:36;;;;;;;11.35;6.25;;;;;;;3.58;57.43;101968.91;4947455;29;20047;-70
2024/01/19 09:26:04;;;;;;;11.50;6.68;;;;;;;3.55;57.63;101976.34;4944682;29;20043;-69
2024/01/19 09:28:31;;;;;;;11.35;6.78;;;;;;;3.54;57.97;101982.66;4942008;29;20043;-70
2024/01/19 09:31:01;;;;;;;10.88;5.93;;;;;;;3.52;58.58;101982.78;4940964;29;20099;-70
2024/01/19 09:33:28;;;;;;;12.25;6.28;;;;;;;3.50;57.96;101995.38;4943934;29;20047;-70
2024/01/19 09:35:58;;;;;;;20.17;7.22;;;;;;;3.38;57.90;101985.97;4941725;29;20052;-71
2024/01/19 09:38:25;;;;;;;10.80;6.00;;;;;;;3.47;58.78;102003.66;4943509;29;20064;-69
2024/01/19 09:40:59;;;;;;;11.73;6.50;;;;;;;3.40;58.79;101996.44;4940249;29;20058;-69
2024/01/19 09:43:27;;;;;;;10.75;6.07;;;;;;;3.50;58.78;102015.81;4942352;29;20044;-69
2024/01/19 09:45:56;;;;;;;15.57;7.72;;;;;;;3.67;58.33;102012.38;4943740;29;20130;-70
2024/01/19 09:48:26;;;;;;;11.52;6.13;;;;;;;3.85;57.54;102017.72;4941028;29;20043;-70
2024/01/19 09:50:57;;;;;;;11.38;6.15;;;;;;;4.04;57.47;102014.94;4945377;28;20055;-70
2024/01/19 09:53:32;;;;;;;10.82;6.13;;;;;;;4.24;56.67;102013.81;4941712;29;20044;-69
2024/01/19 09:56:00;;;;;;;14.15;6.63;;;;;;;4.37;56.32;102023.25;4943950;29;20099;-69
2024/01/19 09:58:28;;;;;;;14.02;6.65;;;;;;;4.56;56.06;102015.94;4943176;29;20059;-69
2024/01/19 10:00:56;;;;;;;9.93;5.90;;;;;;;4.71;55.10;102013.56;4944608;29;20087;-69
2024/01/19 10:03:26;;;;;;;11.52;6.03;;;;;;;4.83;55.57;102027.47;4939399;29;20075;-69
2024/01/19 10:05:54;;;;;;;12.98;6.20;;;;;;;4.95;54.98;102034.22;4946691;29;20454;-70
2024/01/19 10:08:26;;;;;;;11.93;6.30;;;;;;;5.05;54.57;102034.94;4943438;29;20142;-69
2024/01/19 10:10:56;;;;;;;18.50;6.63;;;;;;;5.10;54.54;102039.81;4943070;29;20123;-70
2024/01/19 10:13:24;;;;;;;21.75;6.30;;;;;;;5.21;54.45;102043.00;4941202;29;20895;-69
2024/01/19 10:15:51;;;;;;;14.15;6.32;;;;;;;5.24;54.42;102036.53;4943515;29;20051;-70
2024/01/19 10:18:20;;;;;;;11.57;5.40;;;;;;;5.31;54.52;102036.72;4942611;29;20051;-68
2024/01/19 10:20:51;;;;;;;10.45;5.75;;;;;;;5.32;54.24;102043.72;4945948;29;20116;-69
2024/01/19 10:23:21;;;;;;;9.43;5.90;;;;;;;5.33;54.13;102035.59;4939298;29;20058;-69
2024/01/19 10:25:50;;;;;;;10.23;5.75;;;;;;;5.39;54.39;102042.94;4940050;29;20051;-66
2024/01/19 10:28:33;;;;;;;11.27;6.13;;;;;;;5.43;54.10;102052.28;4943974;29;20055;-72
2024/01/19 10:31:15;;;;;;;9.25;5.43;;;;;;;5.43;54.02;102044.31;4943801;29;20051;-66
2024/01/19 10:33:53;;;;;;;9.73;5.28;;;;;;;5.33;54.49;102050.75;4941136;29;20142;-70
2024/01/19 10:36:22;;;;;;;9.40;4.82;;;;;;;5.20;54.71;102057.31;4947074;29;20131;-70
2024/01/19 10:38:50;;;;;;;10.25;5.90;;;;;;;5.02;55.56;102055.72;4948092;29;20044;-68
2024/01/19 10:41:25;;;;;;;12.77;5.95;;;;;;;4.84;56.30;102045.94;4947872;29;20535;-72
2024/01/19 10:43:54;;;;;;;8.80;5.83;;;;;;;4.71;56.90;102058.00;4943159;29;20957;-70
2024/01/19 10:46:23;;;;;;;11.90;6.40;;;;;;;4.59;57.41;102057.38;4946149;29;20060;-68
2024/01/19 10:48:52;;;;;;;8.05;5.68;;;;;;;4.50;57.10;102060.97;4947158;29;20052;-69
2024/01/19 10:51:21;;;;;;;10.88;6.25;;;;;;;4.43;57.53;102060.75;4948737;29;20098;-69
2024/01/19 10:53:49;;;;;;;11.65;6.28;;;;;;;4.38;58.12;102068.34;4948395;29;20052;-70
2024/01/19 10:56:22;;;;;;;14.57;6.53;;;;;;;4.34;57.87;102066.97;4952027;29;20486;-69
2024/01/19 10:58:50;;;;;;;13.32;6.05;;;;;;;4.30;58.38;102062.94;4944848;29;20051;-69
2024/01/19 11:01:18;;;;;;;13.65;6.13;;;;;;;4.24;58.59;102058.22;4951350;29;20051;-69
2024/01/19 11:03:47;;;;;;;9.77;5.80;;;;;;;4.20;58.74;102063.00;4948938;29;20075;-68
2024/01/19 11:06:15;;;;;;;10.10;5.78;;;;;;;4.18;58.90;102056.16;4955569;29;20089;-68
2024/01/19 11:08:42;;;;;;;9.13;5.90;;;;;;;4.17;58.76;102051.81;4964339;29;20056;-68
2024/01/19 11:11:11;;;;;;;13.20;7.30;;;;;;;4.14;58.63;102050.31;4941308;29;20062;-69
2024/01/19 11:13:44;;;;;;;11.15;6.25;;;;;;;4.10;59.03;102051.59;4948696;29;20051;-69
2024/01/19 11:16:15;;;;;;;10.88;6.45;;;;;;;4.08;59.11;102052.72;4942164;29;20047;-63
2024/01/19 11:18:44;;;;;;;11.43;6.43;;;;;;;4.06;59.18;102058.19;4951041;29;20047;-70
2024/01/19 11:21:12;;;;;;;11.80;6.78;;;;;;;4.04;59.54;102056.66;4950588;29;20052;-70
2024/01/19 11:23:41;;;;;;;11.93;6.38;;;;;;;4.04;59.59;102064.66;4947078;29;20060;-69
2024/01/19 11:26:15;;;;;;;11.60;6.65;;;;;;;4.03;59.41;102060.31;4947928;29;20051;-70
2024/01/19 11:28:52;;;;;;;14.23;6.72;;;;;;;3.99;59.67;102065.09;4946765;29;20054;-69
2024/01/19 11:31:29;;;;;;;9.35;6.28;;;;;;;4.00;59.48;102057.94;4942099;29;20070;-68
2024/01/19 11:33:57;;;;;;;13.45;7.03;;;;;;;3.98;59.58;102055.44;4945948;29;20600;-70